createdAt,value
2018-07-22T00:01:31.991Z,96580.02
2018-07-22T00:03:59.164Z,96584.33
2018-07-22T00:06:26.311Z,96590.38
2018-07-22T00:08:53.776Z,96586.95
2018-07-22T00:11:20.930Z,96582.84
2018-07-22T00:13:48.063Z,96583.89
2018-07-22T00:16:15.176Z,96578.64
2018-07-22T00:18:42.331Z,96579.08
2018-07-22T00:21:09.481Z,96587.74
2018-07-22T00:23:36.581Z,96585.36
2018-07-22T00:26:03.814Z,96572.50
2018-07-22T00:28:30.987Z,96585.85
2018-07-22T00:30:58.248Z,96585.24
2018-07-22T00:33:25.384Z,96578.05
2018-07-22T00:35:52.516Z,96572.78
2018-07-22T00:38:19.652Z,96570.27
2018-07-22T00:40:46.811Z,96573.55
2018-07-22T00:43:13.975Z,96575.25
2018-07-22T00:45:41.164Z,96572.81
2018-07-22T00:48:08.305Z,96578.34
2018-07-22T00:50:35.416Z,96581.35
2018-07-22T00:53:02.599Z,96571.23
2018-07-22T00:55:29.835Z,96573.48
2018-07-22T00:57:57.004Z,96577.72
2018-07-22T01:00:24.181Z,96577.07
2018-07-22T01:02:51.284Z,96578.20
2018-07-22T01:05:18.460Z,96574.11
2018-07-22T01:07:45.593Z,96578.53
2018-07-22T01:10:12.768Z,96570.11
2018-07-22T01:12:39.900Z,96568.22
2018-07-22T01:15:07.092Z,96559.35
2018-07-22T01:17:34.243Z,96558.83
2018-07-22T01:20:08.948Z,96559.59
2018-07-22T01:22:36.072Z,96554.78
2018-07-22T01:25:04.268Z,96553.31
2018-07-22T01:27:31.603Z,96549.11
2018-07-22T01:29:58.760Z,96550.78
2018-07-22T01:32:25.896Z,96549.72
2018-07-22T01:34:53.052Z,96554.02
2018-07-22T01:37:20.216Z,96554.64
2018-07-22T01:39:47.731Z,96553.77
2018-07-22T01:42:14.883Z,96550.69
2018-07-22T01:44:42.069Z,96549.55
2018-07-22T01:47:09.229Z,96549.80
2018-07-22T01:49:36.380Z,96546.44
2018-07-22T01:52:03.510Z,96551.25
2018-07-22T01:54:30.679Z,96548.95
2018-07-22T01:56:57.815Z,96548.90
2018-07-22T01:59:24.981Z,96546.16
2018-07-22T02:01:52.163Z,96548.02
2018-07-22T02:04:19.300Z,96543.77
2018-07-22T02:06:46.432Z,96547.70
2018-07-22T02:09:13.592Z,96544.17
2018-07-22T02:11:40.720Z,96545.75
2018-07-22T02:14:08.291Z,96554.73
2018-07-22T02:16:35.547Z,96550.48
2018-07-22T02:19:02.726Z,96548.58
2018-07-22T02:21:29.892Z,96548.38
2018-07-22T02:23:57.036Z,96552.22
2018-07-22T02:26:24.299Z,96548.17
2018-07-22T02:28:51.428Z,96554.25
2018-07-22T02:31:18.553Z,96549.94
2018-07-22T02:33:45.679Z,96557.12
2018-07-22T02:36:12.916Z,96556.48
2018-07-22T02:38:40.084Z,96559.16
2018-07-22T02:41:07.221Z,96557.58
2018-07-22T02:43:34.392Z,96560.64
2018-07-22T02:46:01.560Z,96557.00
2018-07-22T02:48:28.736Z,96563.68
2018-07-22T02:50:55.859Z,96562.16
2018-07-22T02:53:23.048Z,96563.48
2018-07-22T02:55:50.235Z,96563.92
2018-07-22T02:58:17.536Z,96566.27
2018-07-22T03:00:44.676Z,96565.13
2018-07-22T03:03:11.867Z,96566.34
2018-07-22T03:05:38.984Z,96561.25
2018-07-22T03:08:06.161Z,96568.66
2018-07-22T03:10:33.372Z,96568.41
2018-07-22T03:13:00.572Z,96571.48
2018-07-22T03:15:27.716Z,96566.71
2018-07-22T03:17:54.852Z,96569.83
2018-07-22T03:20:22.040Z,96565.98
2018-07-22T03:22:49.203Z,96566.34
2018-07-22T03:25:16.300Z,96573.61
2018-07-22T03:27:43.428Z,96568.56
2018-07-22T03:30:10.588Z,96566.27
2018-07-22T03:32:37.699Z,96571.37
2018-07-22T03:35:05.268Z,96569.17
2018-07-22T03:37:32.432Z,96570.11
2018-07-22T03:39:59.596Z,96570.31
2018-07-22T03:42:27.097Z,96569.38
2018-07-22T03:44:54.280Z,96569.42
2018-07-22T03:47:21.455Z,96575.25
2018-07-22T03:49:48.544Z,96570.27
2018-07-22T03:52:15.660Z,96566.84
2018-07-22T03:54:43.102Z,96572.95
2018-07-22T03:57:10.336Z,96565.95
2018-07-22T03:59:37.464Z,96569.10
2018-07-22T04:02:04.764Z,96567.89
2018-07-22T04:04:31.937Z,96573.40
2018-07-22T04:06:59.047Z,96568.77
2018-07-22T04:09:26.166Z,96572.94
2018-07-22T04:11:53.274Z,96572.14
2018-07-22T04:14:20.403Z,96582.18
2018-07-22T04:16:47.537Z,96576.94
2018-07-22T04:19:14.689Z,96574.89
2018-07-22T04:21:41.818Z,96574.04
2018-07-22T04:24:08.948Z,96568.93
2018-07-22T04:26:36.072Z,96570.47
2018-07-22T04:29:03.213Z,96567.68
2018-07-22T04:31:30.314Z,96565.06
2018-07-22T04:33:57.416Z,96567.52
2018-07-22T04:36:24.649Z,96573.55
2018-07-22T04:38:51.805Z,96560.28
2018-07-22T04:41:18.985Z,96571.02
2018-07-22T04:43:46.132Z,96569.25
2018-07-22T04:46:13.307Z,96573.63
2018-07-22T04:48:40.445Z,96572.77
2018-07-22T04:51:07.529Z,96571.36
2018-07-22T04:53:34.658Z,96576.59
2018-07-22T04:56:02.210Z,96577.00
2018-07-22T04:58:29.379Z,96579.41
2018-07-22T05:00:56.559Z,96580.05
2018-07-22T05:03:23.715Z,96586.36
2018-07-22T05:05:50.812Z,96586.80
2018-07-22T05:08:17.973Z,96588.97
2018-07-22T05:10:45.105Z,96591.11
2018-07-22T05:13:12.224Z,96594.87
2018-07-22T05:15:39.384Z,96594.14
2018-07-22T05:18:06.552Z,96596.71
2018-07-22T05:20:33.724Z,96591.03
2018-07-22T05:23:00.812Z,96597.91
2018-07-22T05:25:27.963Z,96597.36
2018-07-22T05:27:55.100Z,96600.56
2018-07-22T05:30:22.311Z,96605.45
2018-07-22T05:32:49.423Z,96602.27
2018-07-22T05:35:16.623Z,96605.21
2018-07-22T05:37:43.836Z,96606.30
2018-07-22T05:40:10.988Z,96603.67
2018-07-22T05:42:38.125Z,96606.34
2018-07-22T05:45:05.313Z,96606.86
2018-07-22T05:47:32.499Z,96614.38
2018-07-22T05:49:59.684Z,96618.54
2018-07-22T05:52:26.805Z,96616.21
2018-07-22T05:54:53.959Z,96611.47
2018-07-22T05:57:21.108Z,96625.13
2018-07-22T05:59:48.258Z,96625.22
2018-07-22T06:02:15.429Z,96628.50
2018-07-22T06:04:42.524Z,96639.23
2018-07-22T06:07:09.705Z,96636.06
2018-07-22T06:09:36.852Z,96639.89
2018-07-22T06:12:03.991Z,96640.20
2018-07-22T06:14:31.108Z,96638.97
2018-07-22T06:16:58.249Z,96642.80
2018-07-22T06:19:25.473Z,96646.78
2018-07-22T06:21:52.627Z,96641.24
2018-07-22T06:24:19.780Z,96642.63
2018-07-22T06:26:46.985Z,96639.98
2018-07-22T06:29:14.128Z,96640.75
2018-07-22T06:31:41.258Z,96642.06
2018-07-22T06:34:08.395Z,96642.47
2018-07-22T06:36:35.576Z,96643.48
2018-07-22T06:39:04.026Z,96644.98
2018-07-22T06:41:31.225Z,96648.17
2018-07-22T06:43:58.341Z,96650.84
2018-07-22T06:46:25.448Z,96653.11
2018-07-22T06:48:52.552Z,96656.19
2018-07-22T06:51:19.705Z,96653.72
2018-07-22T06:53:46.805Z,96651.82
2018-07-22T06:56:14.031Z,96657.69
2018-07-22T06:58:41.181Z,96655.62
2018-07-22T07:01:08.345Z,96661.52
2018-07-22T07:03:35.480Z,96668.61
2018-07-22T07:06:02.572Z,96663.67
2018-07-22T07:08:29.756Z,96668.97
2018-07-22T07:10:56.963Z,96663.98
2018-07-22T07:13:24.060Z,96666.30
2018-07-22T07:15:51.300Z,96666.68
2018-07-22T07:18:18.440Z,96664.58
2018-07-22T07:20:45.628Z,96667.66
2018-07-22T07:23:12.805Z,96657.52
2018-07-22T07:25:40.008Z,96661.34
2018-07-22T07:28:07.153Z,96667.92
2018-07-22T07:30:34.328Z,96671.30
2018-07-22T07:33:01.501Z,96668.52
2018-07-22T07:35:28.798Z,96670.49
2018-07-22T07:37:56.016Z,96682.36
2018-07-22T07:40:23.216Z,96674.70
2018-07-22T07:42:50.383Z,96679.95
2018-07-22T07:45:17.550Z,96680.73
2018-07-22T07:47:44.764Z,96686.75
2018-07-22T07:50:11.992Z,96684.73
2018-07-22T07:52:39.386Z,96692.60
2018-07-22T07:55:06.580Z,96685.67
2018-07-22T07:57:33.729Z,96683.67
2018-07-22T08:00:00.885Z,96687.65
2018-07-22T08:02:28.049Z,96679.69
2018-07-22T08:04:55.230Z,96693.97
2018-07-22T08:07:22.409Z,96688.97
2018-07-22T08:09:49.583Z,96685.25
2018-07-22T08:12:16.792Z,96686.39
2018-07-22T08:14:44.021Z,96679.55
2018-07-22T08:17:11.197Z,96683.89
2018-07-22T08:19:38.328Z,96680.03
2018-07-22T08:22:05.745Z,96685.59
2018-07-22T08:24:32.930Z,96695.63
2018-07-22T08:27:00.124Z,96690.98
2018-07-22T08:29:31.234Z,96698.00
2018-07-22T08:31:58.849Z,96693.67
2018-07-22T08:34:26.024Z,96699.17
2018-07-22T08:36:53.341Z,96690.89
2018-07-22T08:39:22.728Z,96689.79
2018-07-22T08:41:50.653Z,96692.28
2018-07-22T08:44:17.799Z,96692.95
2018-07-22T08:46:45.004Z,96693.83
2018-07-22T08:49:12.191Z,96693.23
2018-07-22T08:51:39.448Z,96699.09
2018-07-22T08:54:06.663Z,96700.08
2018-07-22T08:56:34.187Z,96700.66
2018-07-22T08:59:01.536Z,96700.52
2018-07-22T09:01:29.540Z,96705.78
2018-07-22T09:03:56.740Z,96709.53
2018-07-22T09:06:24.581Z,96698.86
2018-07-22T09:08:51.785Z,96581.28
2018-07-22T09:11:18.950Z,96704.64
2018-07-22T09:13:46.093Z,96709.12
2018-07-22T09:16:13.384Z,96709.69
2018-07-22T09:18:40.616Z,96712.38
2018-07-22T09:21:08.257Z,96711.22
2018-07-22T09:23:35.445Z,96720.66
2018-07-22T09:26:02.700Z,96717.55
2018-07-22T09:28:29.898Z,96715.87
2018-07-22T09:30:57.176Z,96724.16
2018-07-22T09:33:24.383Z,96717.52
2018-07-22T09:35:51.577Z,96719.89
2018-07-22T09:38:18.791Z,96723.20
2018-07-22T09:40:45.991Z,96721.09
2018-07-22T09:43:13.143Z,96726.41
2018-07-22T09:45:40.344Z,96726.59
2018-07-22T09:48:07.669Z,96729.85
2018-07-22T09:50:41.592Z,96730.61
2018-07-22T09:53:08.763Z,96727.66
2018-07-22T09:55:35.945Z,96729.78
2018-07-22T09:58:03.168Z,96724.29
2018-07-22T10:00:35.337Z,96730.22
2018-07-22T10:03:02.519Z,96731.52
2018-07-22T10:05:29.716Z,96730.98
2018-07-22T10:07:57.050Z,96728.69
2018-07-22T10:10:24.273Z,96725.48
2018-07-22T10:12:51.440Z,96726.05
2018-07-22T10:15:18.658Z,96729.94
2018-07-22T10:17:45.828Z,96732.78
2018-07-22T10:20:12.977Z,96731.00
2018-07-22T10:22:40.316Z,96730.09
2018-07-22T10:25:07.879Z,96733.05
2018-07-22T10:27:35.153Z,96738.33
2018-07-22T10:30:02.757Z,96737.47
2018-07-22T10:32:29.909Z,96731.63
2018-07-22T10:34:57.047Z,96730.29
2018-07-22T10:37:24.467Z,96735.16
2018-07-22T10:39:51.602Z,96731.77
2018-07-22T10:42:18.765Z,96728.31
2018-07-22T10:44:45.867Z,96735.73
2018-07-22T10:47:13.075Z,96735.92
2018-07-22T10:49:40.252Z,96731.91
2018-07-22T10:52:07.420Z,96731.80
2018-07-22T10:54:34.568Z,96725.30
2018-07-22T10:57:01.700Z,96726.05
2018-07-22T10:59:29.095Z,96721.05
2018-07-22T11:01:56.208Z,96722.23
2018-07-22T11:04:23.335Z,96727.03
2018-07-22T11:06:50.531Z,96729.14
2018-07-22T11:09:17.722Z,96727.63
2018-07-22T11:11:44.888Z,96726.84
2018-07-22T11:14:12.034Z,96728.94
2018-07-22T11:16:39.217Z,96728.56
2018-07-22T11:19:06.356Z,96727.42
2018-07-22T11:21:33.532Z,96728.97
2018-07-22T11:24:00.709Z,96730.70
2018-07-22T11:26:27.943Z,96734.91
2018-07-22T11:28:55.213Z,96736.62
2018-07-22T11:31:22.300Z,96735.07
2018-07-22T11:33:49.429Z,96732.34
2018-07-22T11:36:16.599Z,96731.96
2018-07-22T11:38:43.797Z,96730.83
2018-07-22T11:41:10.992Z,96728.11
2018-07-22T11:43:38.147Z,96734.03
2018-07-22T11:46:05.336Z,96726.36
2018-07-22T11:48:32.492Z,96734.40
2018-07-22T11:50:59.637Z,96722.86
2018-07-22T11:53:26.736Z,96728.17
2018-07-22T11:55:53.916Z,96735.55
2018-07-22T11:58:21.053Z,96737.77
2018-07-22T12:00:49.060Z,96726.38
2018-07-22T12:03:17.827Z,96733.02
2018-07-22T12:05:44.966Z,96729.67
2018-07-22T12:08:12.122Z,96721.97
2018-07-22T12:10:39.396Z,96720.00
2018-07-22T12:13:06.653Z,96726.41
2018-07-22T12:15:33.828Z,96727.06
2018-07-22T12:18:11.608Z,96731.08
2018-07-22T12:20:39.096Z,96728.41
2018-07-22T12:23:06.266Z,96727.98
2018-07-22T12:25:33.529Z,96727.64
2018-07-22T12:28:00.724Z,96727.23
2018-07-22T12:30:27.881Z,96719.76
2018-07-22T12:32:55.053Z,96719.30
2018-07-22T12:35:22.333Z,96723.58
2018-07-22T12:37:49.484Z,96727.00
2018-07-22T12:40:16.702Z,96723.55
2018-07-22T12:42:43.913Z,96720.16
2018-07-22T12:45:11.180Z,96722.27
2018-07-22T12:47:38.371Z,96722.34
2018-07-22T12:50:05.571Z,96722.97
2018-07-22T12:52:32.835Z,96717.48
2018-07-22T12:55:00.033Z,96719.83
2018-07-22T12:57:27.313Z,96720.70
2018-07-22T12:59:54.539Z,96717.09
2018-07-22T13:02:28.644Z,96723.17
2018-07-22T13:04:55.785Z,96715.62
2018-07-22T13:07:22.918Z,96713.09
2018-07-22T13:09:50.123Z,96712.34
2018-07-22T13:12:17.316Z,96717.29
2018-07-22T13:14:44.544Z,96713.59
2018-07-22T13:17:11.746Z,96717.74
2018-07-22T13:19:38.913Z,96722.28
2018-07-22T13:22:06.092Z,96716.11
2018-07-22T13:24:33.259Z,96716.52
2018-07-22T13:27:00.439Z,96714.28
2018-07-22T13:29:27.601Z,96716.84
2018-07-22T13:31:54.848Z,96711.70
2018-07-22T13:34:22.026Z,96711.25
2018-07-22T13:36:49.242Z,96712.88
2018-07-22T13:39:16.412Z,96715.85
2018-07-22T13:41:43.645Z,96714.42
2018-07-22T13:44:10.830Z,96723.41
2018-07-22T13:46:38.097Z,96713.87
2018-07-22T13:49:05.417Z,96715.44
2018-07-22T13:51:32.637Z,96712.95
2018-07-22T13:53:59.794Z,96714.25
2018-07-22T13:56:26.945Z,96711.81
2018-07-22T13:58:54.101Z,96715.28
2018-07-22T14:01:21.340Z,96712.50
2018-07-22T14:03:48.572Z,96715.44
2018-07-22T14:06:15.733Z,96712.28
2018-07-22T14:08:42.907Z,96700.84
2018-07-22T14:11:10.415Z,96704.70
2018-07-22T14:13:37.623Z,96706.34
2018-07-22T14:16:04.884Z,96706.31
2018-07-22T14:18:32.080Z,96707.22
2018-07-22T14:20:59.219Z,96705.75
2018-07-22T14:23:26.375Z,96704.55
2018-07-22T14:25:53.792Z,96706.70
2018-07-22T14:28:21.193Z,96703.92
2018-07-22T14:30:48.422Z,96707.44
2018-07-22T14:33:15.608Z,96698.43
2018-07-22T14:35:42.852Z,96704.88
2018-07-22T14:38:10.049Z,96702.56
2018-07-22T14:40:37.342Z,96703.88
2018-07-22T14:43:04.919Z,96700.20
2018-07-22T14:45:32.091Z,96696.97
2018-07-22T14:47:59.300Z,96703.75
2018-07-22T14:50:26.464Z,96702.58
2018-07-22T14:52:53.746Z,96696.19
2018-07-22T14:55:21.082Z,96696.67
2018-07-22T14:57:48.287Z,96706.45
2018-07-22T15:00:15.507Z,96702.40
2018-07-22T15:02:42.646Z,96700.94
2018-07-22T15:05:09.812Z,96706.56
2018-07-22T15:07:37.028Z,96705.82
2018-07-22T15:10:04.667Z,96704.51
2018-07-22T15:12:31.877Z,96700.64
2018-07-22T15:14:59.031Z,96702.80
2018-07-22T15:17:26.197Z,96704.36
2018-07-22T15:19:53.371Z,96707.09
2018-07-22T15:22:20.559Z,96704.88
2018-07-22T15:24:47.685Z,96709.00
2018-07-22T15:27:14.888Z,96704.29
2018-07-22T15:29:42.146Z,96709.86
2018-07-22T15:32:09.384Z,96708.56
2018-07-22T15:34:36.547Z,96706.05
2018-07-22T15:37:03.866Z,96705.14
2018-07-22T15:39:31.055Z,96703.22
2018-07-22T15:41:58.255Z,96699.88
2018-07-22T15:44:25.533Z,96701.86
2018-07-22T15:46:52.756Z,96695.98
2018-07-22T15:49:20.008Z,96695.78
2018-07-22T16:04:51.810Z,96695.88
2018-07-22T16:07:18.979Z,96695.25
2018-07-22T16:09:52.996Z,96690.24
2018-07-22T16:12:20.226Z,96697.55
2018-07-22T16:14:47.454Z,96695.04
2018-07-22T16:17:14.636Z,96692.27
2018-07-22T16:19:44.801Z,96691.95
2018-07-22T16:22:11.979Z,96696.14
2018-07-22T16:24:45.984Z,96692.37
2018-07-22T16:27:13.182Z,96692.95
2018-07-22T16:29:40.482Z,96695.70
2018-07-22T16:32:07.729Z,96692.44
2018-07-22T16:34:35.161Z,96694.36
2018-07-22T16:37:02.305Z,96691.83
2018-07-22T16:39:29.476Z,96693.05
2018-07-22T16:41:56.671Z,96692.55
2018-07-22T16:44:23.867Z,96689.75
2018-07-22T16:46:51.121Z,96693.76
2018-07-22T16:49:18.284Z,96694.87
2018-07-22T16:51:45.497Z,96693.90
2018-07-22T16:54:13.462Z,96698.50
2018-07-22T16:56:40.607Z,96698.34
2018-07-22T16:59:07.858Z,96697.83
2018-07-22T17:01:35.166Z,96693.08
2018-07-22T17:04:02.343Z,96698.91
2018-07-22T17:06:29.563Z,96700.13
2018-07-22T17:08:56.741Z,96700.34
2018-07-22T17:11:23.983Z,96696.52
2018-07-22T17:13:51.136Z,96690.64
2018-07-22T17:16:18.320Z,96695.11
2018-07-22T17:18:45.612Z,96696.83
2018-07-22T17:21:12.815Z,96697.38
2018-07-22T17:23:39.984Z,96693.73
2018-07-22T17:26:07.248Z,96695.45
2018-07-22T17:28:34.475Z,96695.13
2018-07-22T17:31:01.735Z,96699.39
2018-07-22T17:33:28.932Z,96705.15
2018-07-22T17:35:56.116Z,96705.16
2018-07-22T17:38:23.342Z,96705.02
2018-07-22T17:40:50.505Z,96708.48
2018-07-22T17:43:17.738Z,96717.88
2018-07-22T17:45:44.878Z,96715.44
2018-07-22T17:48:12.053Z,96720.08
2018-07-22T17:50:39.181Z,96721.59
2018-07-22T17:53:06.353Z,96722.56
2018-07-22T17:55:33.575Z,96718.75
2018-07-22T17:58:00.740Z,96723.36
2018-07-22T18:00:27.904Z,96726.81
2018-07-22T18:03:33.879Z,96724.50
2018-07-22T18:06:01.161Z,96725.87
2018-07-22T18:08:28.415Z,96726.63
2018-07-22T18:10:55.968Z,96727.80
2018-07-22T18:13:23.127Z,96726.80
2018-07-22T18:15:50.317Z,96732.36
2018-07-22T18:18:17.456Z,96738.84
2018-07-22T18:20:45.977Z,96741.34
2018-07-22T18:23:13.259Z,96745.08
2018-07-22T18:25:41.095Z,96743.70
2018-07-22T18:28:08.282Z,96750.84
2018-07-22T18:30:35.446Z,96747.97
2018-07-22T18:33:02.649Z,96753.55
2018-07-22T18:35:29.876Z,96746.24
2018-07-22T18:37:57.577Z,96748.58
2018-07-22T18:40:25.705Z,96755.10
2018-07-22T18:42:53.670Z,96752.01
2018-07-22T18:45:21.361Z,96757.41
2018-07-22T18:47:48.930Z,96756.63
2018-07-22T18:50:16.391Z,96759.09
2018-07-22T18:52:43.900Z,96758.92
2018-07-22T18:55:11.088Z,96758.38
2018-07-22T18:57:39.089Z,96761.98
2018-07-22T19:00:20.597Z,96769.67
2018-07-22T19:02:48.127Z,96768.33
2018-07-22T19:05:15.676Z,96773.91
2018-07-22T19:07:43.174Z,96779.66
2018-07-22T19:10:10.683Z,96790.03
2018-07-22T19:12:37.952Z,96793.28
2018-07-22T19:15:05.568Z,96800.96
2018-07-22T19:17:32.845Z,96805.57
2018-07-22T19:20:00.035Z,96805.76
2018-07-22T19:22:27.236Z,96803.62
2018-07-22T19:24:54.414Z,96802.66
2018-07-22T19:27:21.684Z,96806.69
2018-07-22T19:29:48.972Z,96809.80
2018-07-22T19:32:16.172Z,96813.05
2018-07-22T19:34:43.327Z,96814.41
2018-07-22T19:37:10.469Z,96824.16
2018-07-22T19:39:37.927Z,96826.47
2018-07-22T19:42:05.461Z,96819.55
2018-07-22T19:44:32.615Z,96823.39
2018-07-22T19:46:59.803Z,96818.21
2018-07-22T19:49:27.015Z,96822.39
2018-07-22T19:51:54.171Z,96819.86
2018-07-22T19:54:21.335Z,96817.48
2018-07-22T19:56:48.518Z,96813.53
2018-07-22T19:59:15.731Z,96820.36
2018-07-22T20:01:43.048Z,96813.95
2018-07-22T20:04:11.852Z,96820.16
2018-07-22T20:06:39.316Z,96816.84
2018-07-22T20:09:07.293Z,96821.28
2018-07-22T20:11:34.661Z,96821.80
2018-07-22T20:14:01.939Z,96819.31
2018-07-22T20:16:29.121Z,96820.03
2018-07-22T20:18:56.308Z,96829.61
2018-07-22T20:21:23.581Z,96823.98
2018-07-22T20:23:50.782Z,96828.91
2018-07-22T20:26:18.008Z,96830.36
2018-07-22T20:28:45.202Z,96833.88
2018-07-22T20:31:12.346Z,96832.11
2018-07-22T20:33:39.654Z,96833.41
2018-07-22T20:36:06.863Z,96833.19
2018-07-22T20:38:34.200Z,96812.98
2018-07-22T20:41:01.393Z,96843.59
2018-07-22T20:43:28.501Z,96841.16
2018-07-22T20:45:55.717Z,96844.23
2018-07-22T20:48:22.916Z,96845.19
2018-07-22T20:50:50.033Z,96841.89
2018-07-22T20:53:17.174Z,96843.78
2018-07-22T20:55:44.313Z,96843.90
2018-07-22T20:58:11.508Z,96843.97
2018-07-22T21:00:38.673Z,96847.67
2018-07-22T21:03:05.811Z,96801.89
2018-07-22T21:05:33.256Z,96844.31
2018-07-22T21:08:00.476Z,96852.33
2018-07-22T21:10:27.580Z,96849.12
2018-07-22T21:13:06.309Z,96850.92
2018-07-22T21:15:33.526Z,96855.72
2018-07-22T21:18:00.727Z,96862.98
2018-07-22T21:20:27.860Z,96863.23
2018-07-22T21:22:54.999Z,96869.73
2018-07-22T21:25:22.176Z,96858.05
2018-07-22T21:27:49.307Z,96860.33
2018-07-22T21:30:16.499Z,96861.90
2018-07-22T21:32:43.697Z,96858.27
2018-07-22T21:35:10.915Z,96851.81
2018-07-22T21:37:38.324Z,96856.14
2018-07-22T21:40:05.771Z,96854.59
2018-07-22T21:42:33.064Z,96855.63
2018-07-22T21:45:00.396Z,96852.38
2018-07-22T21:47:27.589Z,96857.74
2018-07-22T21:49:54.785Z,96856.66
2018-07-22T21:52:22.268Z,96857.34
2018-07-22T21:54:49.757Z,96855.77
2018-07-22T21:57:16.926Z,96851.75
2018-07-22T21:59:44.065Z,96853.72
2018-07-22T22:02:11.320Z,96850.47
2018-07-22T22:04:38.487Z,96848.05
2018-07-22T22:07:05.690Z,96850.47
2018-07-22T22:09:33.008Z,96854.80
2018-07-22T22:12:00.144Z,96856.66
2018-07-22T22:14:27.340Z,96858.88
2018-07-22T22:16:54.480Z,96859.73
2018-07-22T22:19:21.674Z,96863.50
2018-07-22T22:21:48.844Z,96858.52
2018-07-22T22:24:16.033Z,96861.33
2018-07-22T22:26:43.158Z,96859.91
2018-07-22T22:29:10.689Z,96865.20
2018-07-22T22:31:37.905Z,96867.58
2018-07-22T22:34:05.280Z,96862.42
2018-07-22T22:36:32.821Z,96862.19
2018-07-22T22:38:59.953Z,96860.87
2018-07-22T22:41:27.053Z,96860.41
2018-07-22T22:43:54.197Z,96860.20
2018-07-22T22:46:28.101Z,96859.69
2018-07-22T22:48:55.261Z,96861.23
2018-07-22T22:51:22.425Z,96856.08
2018-07-22T22:53:49.556Z,96860.50
2018-07-22T22:56:16.720Z,96860.94
2018-07-22T22:58:55.419Z,96859.77
2018-07-22T23:01:22.565Z,96861.20
2018-07-22T23:03:49.719Z,96862.22
2018-07-22T23:06:16.868Z,96867.44
2018-07-22T23:08:44.052Z,96866.14
2018-07-22T23:11:11.205Z,96866.97
2018-07-22T23:13:38.374Z,96864.21
2018-07-22T23:16:05.528Z,96867.82
2018-07-22T23:18:32.688Z,96860.80
2018-07-22T23:20:59.812Z,96865.73
2018-07-22T23:23:26.981Z,96867.22
2018-07-22T23:25:54.132Z,96864.26
2018-07-22T23:28:21.285Z,96859.13
2018-07-22T23:30:48.436Z,96862.84
2018-07-22T23:33:15.532Z,96858.86
2018-07-22T23:35:42.694Z,96856.48
2018-07-22T23:38:09.886Z,96853.61
2018-07-22T23:40:37.028Z,96856.22
2018-07-22T23:43:04.221Z,96848.03
2018-07-22T23:45:31.316Z,96853.70
2018-07-22T23:47:58.431Z,96853.77
2018-07-22T23:50:25.656Z,96856.22
2018-07-22T23:52:52.829Z,96854.20
2018-07-22T23:55:19.955Z,96853.59
2018-07-22T23:57:47.077Z,96859.78
